CheckWX is a tool to help pilots better visualize weather data.  It is not intended as a substitute for an official pre-flight weather briefing.

08:51:36 UTC

KBYY METAR
Bay City Regional Airport
Bay City, Texas, USA
Current

17 mins ago

KBYY 220835Z AUTO 16008KT 7SM OVC011 26/25 A2974 RMK AO2 T02630250
Observed
May-22 @ 08:35 UTC
Wind
  • 160° at 8 KTS
Visibility
7 SM
Flight Rules
MVFR
Cloud Levels
  • Overcast at 1,100' AGL
Temperature
26°C / 79°F
Dewpoint
25°C / 77°F
Humidity
94%
Altimeter
29.74" Hg
Pressure
1007.12 hPa
Previous

37 mins ago

KBYY 220815Z AUTO 16008G15KT 7SM OVC011 26/25 A2974 RMK AO2 T02640250
Observed
May-22 @ 08:15 UTC
Wind
  • 160° at 8 KTS
  • Gusting to 15 KTS
Visibility
7 SM
Flight Rules
MVFR
Cloud Levels
  • Overcast at 1,100' AGL
Temperature
26°C / 79°F
Dewpoint
25°C / 77°F
Humidity
94%
Altimeter
29.74" Hg
Pressure
1007.12 hPa
Previous

1 hour ago

KBYY 220735Z AUTO 16012KT 7SM OVC009 26/25 A2974 RMK AO2 T02650252
Observed
May-22 @ 07:35 UTC
Wind
  • 160° at 12 KTS
Visibility
7 SM
Flight Rules
IFR
Cloud Levels
  • Overcast at 900' AGL
Temperature
27°C / 81°F
Dewpoint
25°C / 77°F
Heat Index
31°C / 88°F
Humidity
89%
Altimeter
29.74" Hg
Pressure
1007.12 hPa